createdAt,value
2023-01-19T07:25:24.026Z,13.30
2023-01-19T07:27:50.861Z,15.00
2023-01-19T07:30:17.818Z,14.40
2023-01-19T07:32:44.663Z,13.00
2023-01-19T07:35:11.656Z,13.00
2023-01-19T07:37:38.486Z,12.70
2023-01-19T07:40:05.817Z,11.90
2023-01-19T07:42:32.560Z,9.60
2023-01-19T07:45:05.232Z,8.80
2023-01-19T07:47:33.393Z,8.10
2023-01-19T07:50:00.265Z,7.80
2023-01-19T07:52:30.158Z,7.60
2023-01-19T07:54:58.025Z,9.00
2023-01-19T07:57:25.072Z,9.00
2023-01-19T07:59:51.815Z,9.80
2023-01-19T08:02:18.762Z,9.80
2023-01-19T08:04:47.728Z,9.50
2023-01-19T08:07:14.544Z,10.10
2023-01-19T08:09:41.451Z,9.80
2023-01-19T08:12:08.287Z,10.00
2023-01-19T08:14:36.691Z,7.20
2023-01-19T08:17:03.618Z,6.00
2023-01-19T08:19:30.668Z,6.30
2023-01-19T08:21:58.635Z,6.40
2023-01-19T08:24:27.981Z,6.40
2023-01-19T08:27:03.377Z,6.50
2023-01-19T08:29:31.352Z,6.70
2023-01-19T08:32:01.238Z,5.40
2023-01-19T08:34:31.489Z,6.50
2023-01-19T08:36:58.910Z,5.80
2023-01-19T08:39:26.822Z,5.90
2023-01-19T08:41:53.662Z,6.40
2023-01-19T08:44:20.462Z,5.90
2023-01-19T08:46:50.226Z,5.90
2023-01-19T08:49:17.470Z,5.70
2023-01-19T08:51:46.286Z,7.20
2023-01-19T08:54:15.090Z,6.40
2023-01-19T08:56:42.723Z,6.10
2023-01-19T08:59:11.924Z,6.40
2023-01-19T09:01:40.893Z,6.00
2023-01-19T09:04:07.920Z,6.80
2023-01-19T09:06:34.985Z,5.70
2023-01-19T09:09:01.966Z,6.60
2023-01-19T09:11:30.178Z,6.50
2023-01-19T09:13:56.969Z,6.20
2023-01-19T09:16:26.535Z,7.20
2023-01-19T09:18:53.618Z,6.30
2023-01-19T09:21:20.477Z,5.80
2023-01-19T09:23:48.687Z,6.70
2023-01-19T09:26:16.055Z,5.40
2023-01-19T09:28:42.846Z,5.30
2023-01-19T09:31:09.791Z,5.80
2023-01-19T09:33:37.126Z,6.70
2023-01-19T09:36:04.934Z,5.40
2023-01-19T09:38:32.172Z,5.20
2023-01-19T09:40:59.182Z,5.00
2023-01-19T09:43:34.768Z,4.90
2023-01-19T09:46:28.164Z,4.70
2023-01-19T09:48:57.163Z,5.90
2023-01-19T09:51:26.241Z,5.10
2023-01-19T09:54:12.635Z,5.40
2023-01-19T09:56:39.885Z,5.30
2023-01-19T14:21:08.355Z,12.40
2023-01-19T14:23:49.413Z,9.70
2023-01-19T14:26:42.289Z,8.70
2023-01-19T14:29:08.931Z,9.90
2023-01-19T14:31:46.911Z,8.80
2023-01-19T14:34:33.169Z,9.80
2023-01-19T14:37:01.184Z,9.20
2023-01-19T14:39:31.515Z,9.20
2023-01-19T14:42:00.379Z,9.10
2023-01-19T14:44:31.238Z,9.80
2023-01-19T14:46:59.022Z,10.40
2023-01-19T14:49:36.918Z,9.50
2023-01-19T14:52:32.555Z,8.30
2023-01-19T14:54:59.317Z,9.10
2023-01-19T14:57:26.007Z,9.90
2023-01-19T14:59:52.711Z,10.60
2023-01-19T15:02:19.687Z,9.50
2023-01-19T15:04:47.351Z,8.50
2023-01-19T15:07:18.722Z,9.30
2023-01-19T15:09:46.172Z,9.90
2023-01-19T15:12:14.819Z,11.00
2023-01-19T15:14:43.039Z,9.80
2023-01-19T15:17:24.842Z,10.30
2023-01-19T15:19:53.385Z,9.10
2023-01-19T15:22:21.785Z,10.50
2023-01-19T15:24:49.600Z,11.60
2023-01-19T15:27:16.202Z,9.60
2023-01-19T15:29:42.923Z,10.50
2023-01-19T15:39:50.337Z,9.30
2023-01-19T15:42:17.262Z,9.80
2023-01-19T15:44:45.205Z,9.80
2023-01-19T15:47:11.968Z,10.30
2023-01-19T15:49:38.767Z,9.80
2023-01-19T15:52:05.571Z,8.90
2023-01-19T15:54:32.565Z,9.60
2023-01-19T15:56:59.372Z,9.70
2023-01-19T15:59:26.272Z,10.20
2023-01-19T16:01:53.185Z,10.70
2023-01-19T16:04:20.261Z,10.50
2023-01-19T16:06:47.360Z,12.00
2023-01-19T16:09:18.564Z,11.30
2023-01-19T16:11:45.682Z,9.60
2023-01-19T16:14:12.861Z,11.10
2023-01-19T16:16:39.702Z,11.00
2023-01-19T16:19:06.533Z,12.60
2023-01-19T16:21:33.387Z,11.90
2023-01-19T16:24:00.268Z,11.20
2023-01-19T16:26:29.541Z,10.80
2023-01-19T16:28:58.606Z,11.10
2023-01-19T16:31:26.045Z,12.10
2023-01-19T16:33:53.113Z,11.60
2023-01-19T16:36:23.419Z,11.00
2023-01-19T16:38:50.326Z,10.70
2023-01-19T16:41:17.569Z,10.20
2023-01-19T16:43:44.621Z,11.50
2023-01-19T16:46:26.145Z,10.50
2023-01-19T16:48:53.207Z,11.10
2023-01-19T16:51:20.147Z,10.40
2023-01-19T16:53:49.064Z,12.80
2023-01-19T16:56:16.004Z,12.30
2023-01-19T16:58:43.194Z,11.60
2023-01-19T17:01:14.856Z,11.00
2023-01-19T17:03:41.996Z,9.50
2023-01-19T17:06:10.591Z,10.60
2023-01-19T17:08:37.551Z,9.20
2023-01-19T17:11:19.839Z,11.90
2023-01-19T17:13:52.856Z,10.30
2023-01-19T17:16:19.845Z,10.00
2023-01-19T17:18:47.342Z,8.50
2023-01-19T17:21:17.960Z,10.10
2023-01-19T17:23:46.323Z,10.40
2023-01-19T17:33:56.148Z,10.60
2023-01-19T17:36:25.317Z,11.50
2023-01-19T17:38:52.945Z,11.30
2023-01-19T17:41:26.932Z,11.00
2023-01-19T17:43:54.591Z,11.50
2023-01-19T17:46:23.128Z,12.20
2023-01-19T17:49:00.670Z,11.10
2023-01-19T17:51:27.963Z,10.70
2023-01-19T17:53:55.072Z,10.30
2023-01-19T22:18:29.302Z,12.20
2023-01-19T22:20:56.064Z,10.30
2023-01-19T22:23:22.892Z,9.70
2023-01-19T22:25:49.639Z,9.50
2023-01-19T22:28:16.329Z,8.40
2023-01-19T22:30:43.444Z,8.40
2023-01-19T22:33:10.574Z,9.50
2023-01-19T22:35:37.420Z,10.20
2023-01-19T22:38:04.641Z,10.40
2023-01-19T22:40:31.340Z,10.50
2023-01-19T22:42:58.055Z,10.00
2023-01-19T22:45:24.747Z,9.70
2023-01-19T22:47:51.429Z,10.20
2023-01-19T22:50:18.043Z,9.80
2023-01-19T22:52:45.142Z,9.80
2023-01-19T22:55:12.159Z,9.30
2023-01-19T22:57:39.641Z,8.80
2023-01-19T23:00:08.272Z,8.20
2023-01-19T23:02:34.997Z,8.10
2023-01-19T23:05:01.732Z,8.90
2023-01-19T23:07:28.767Z,11.00
2023-01-19T23:09:55.415Z,10.30
2023-01-19T23:12:22.083Z,9.80
2023-01-19T23:14:48.877Z,9.40
2023-01-19T23:17:15.740Z,10.10
2023-01-19T23:19:42.501Z,10.00
2023-01-19T23:22:09.302Z,10.30
2023-01-19T23:24:36.091Z,9.30
2023-01-19T23:27:02.997Z,9.50
2023-01-19T23:29:29.732Z,8.50
2023-01-19T23:31:56.451Z,10.10
2023-01-19T23:37:50.784Z,10.70
2023-01-19T23:40:17.563Z,8.50
2023-01-19T23:42:44.154Z,9.30
2023-01-19T23:45:11.001Z,8.70
2023-01-19T23:47:42.500Z,10.40
2023-01-19T23:50:09.475Z,10.50
2023-01-19T23:52:36.114Z,8.80
2023-01-19T23:55:03.403Z,9.90
2023-01-19T23:57:30.093Z,9.20
2023-01-19T23:59:56.780Z,9.30
